sensor_id;sensor_type;location;lat;lon;timestamp;temperature;humidity
63094;DHT22;49183;51.380;0.098;2023-05-16T09:20:13;13.90;65.00
63094;DHT22;49183;51.380;0.098;2023-05-16T09:29:12;14.20;62.90
63094;DHT22;49183;51.380;0.098;2023-05-16T09:31:39;14.10;63.00
63094;DHT22;49183;51.380;0.098;2023-05-16T09:34:09;14.10;63.10
63094;DHT22;49183;51.380;0.098;2023-05-16T09:36:39;14.20;63.50
63094;DHT22;49183;51.380;0.098;2023-05-16T09:39:14;14.30;62.60
63094;DHT22;49183;51.380;0.098;2023-05-16T09:41:42;14.30;62.80
63094;DHT22;49183;51.380;0.098;2023-05-16T09:44:10;14.30;62.90
63094;DHT22;49183;51.380;0.098;2023-05-16T09:46:38;14.10;63.20
63094;DHT22;49183;51.380;0.098;2023-05-16T09:49:11;14.20;63.00
63094;DHT22;49183;51.380;0.098;2023-05-16T09:51:40;14.30;62.60
63094;DHT22;49183;51.380;0.098;2023-05-16T09:54:08;14.50;62.00
63094;DHT22;49183;51.380;0.098;2023-05-16T09:56:49;14.70;61.70
63094;DHT22;49183;51.380;0.098;2023-05-16T09:59:17;14.80;61.10
63094;DHT22;49183;51.380;0.098;2023-05-16T10:01:46;14.80;61.50
63094;DHT22;49183;51.380;0.098;2023-05-16T10:04:15;14.90;61.90
63094;DHT22;49183;51.380;0.098;2023-05-16T10:06:44;15.10;61.70
63094;DHT22;49183;51.380;0.098;2023-05-16T10:09:13;15.00;61.40
63094;DHT22;49183;51.380;0.098;2023-05-16T10:11:42;14.80;61.60
63094;DHT22;49183;51.380;0.098;2023-05-16T10:14:10;14.90;61.60
63094;DHT22;49183;51.380;0.098;2023-05-16T10:16:42;15.10;61.50
63094;DHT22;49183;51.380;0.098;2023-05-16T10:19:10;15.30;61.60
63094;DHT22;49183;51.380;0.098;2023-05-16T10:21:39;15.40;59.90
63094;DHT22;49183;51.380;0.098;2023-05-16T10:24:10;15.30;59.80
63094;DHT22;49183;51.380;0.098;2023-05-16T10:26:39;15.10;59.70
63094;DHT22;49183;51.380;0.098;2023-05-16T10:29:07;15.00;59.80
63094;DHT22;49183;51.380;0.098;2023-05-16T10:31:36;15.00;60.10
63094;DHT22;49183;51.380;0.098;2023-05-16T10:34:04;15.00;60.50
63094;DHT22;49183;51.380;0.098;2023-05-16T10:36:33;15.20;60.30
63094;DHT22;49183;51.380;0.098;2023-05-16T10:39:01;15.30;58.70
63094;DHT22;49183;51.380;0.098;2023-05-16T10:41:31;15.30;58.40
63094;DHT22;49183;51.380;0.098;2023-05-16T10:43:59;15.40;56.80
63094;DHT22;49183;51.380;0.098;2023-05-16T10:46:27;15.60;56.50
63094;DHT22;49183;51.380;0.098;2023-05-16T10:48:58;15.50;55.10
63094;DHT22;49183;51.380;0.098;2023-05-16T10:54:07;15.40;56.30
63094;DHT22;49183;51.380;0.098;2023-05-16T10:56:35;15.50;56.40
63094;DHT22;49183;51.380;0.098;2023-05-16T10:59:03;15.50;56.20
63094;DHT22;49183;51.380;0.098;2023-05-16T11:01:35;15.60;55.90
63094;DHT22;49183;51.380;0.098;2023-05-16T11:04:05;15.80;56.30
63094;DHT22;49183;51.380;0.098;2023-05-16T11:09:16;16.00;55.00
63094;DHT22;49183;51.380;0.098;2023-05-16T11:14:21;16.00;54.80
63094;DHT22;49183;51.380;0.098;2023-05-16T11:17:05;16.10;55.40
63094;DHT22;49183;51.380;0.098;2023-05-16T11:19:38;16.20;54.50
63094;DHT22;49183;51.380;0.098;2023-05-16T11:22:21;16.30;54.90
63094;DHT22;49183;51.380;0.098;2023-05-16T11:25:03;16.50;54.10
63094;DHT22;49183;51.380;0.098;2023-05-16T11:27:34;16.60;53.90
63094;DHT22;49183;51.380;0.098;2023-05-16T11:32:34;16.60;52.30
63094;DHT22;49183;51.380;0.098;2023-05-16T11:35:03;16.40;52.40
63094;DHT22;49183;51.380;0.098;2023-05-16T11:37:31;16.50;53.40
63094;DHT22;49183;51.380;0.098;2023-05-16T11:40:00;16.60;53.40
63094;DHT22;49183;51.380;0.098;2023-05-16T11:42:34;16.70;53.10
63094;DHT22;49183;51.380;0.098;2023-05-16T11:47:45;16.70;53.30
63094;DHT22;49183;51.380;0.098;2023-05-16T11:50:21;16.80;52.60
63094;DHT22;49183;51.380;0.098;2023-05-16T11:52:53;16.90;52.60
63094;DHT22;49183;51.380;0.098;2023-05-16T11:55:27;17.00;52.80
63094;DHT22;49183;51.380;0.098;2023-05-16T11:58:09;16.90;52.30
63094;DHT22;49183;51.380;0.098;2023-05-16T12:00:47;16.80;53.20
63094;DHT22;49183;51.380;0.098;2023-05-16T12:03:15;16.80;53.90
63094;DHT22;49183;51.380;0.098;2023-05-16T12:05:50;16.70;54.10
63094;DHT22;49183;51.380;0.098;2023-05-16T12:08:22;16.80;54.40
63094;DHT22;49183;51.380;0.098;2023-05-16T12:10:52;16.90;54.00
63094;DHT22;49183;51.380;0.098;2023-05-16T12:13:22;16.60;53.40
63094;DHT22;49183;51.380;0.098;2023-05-16T12:15:51;16.30;54.30
63094;DHT22;49183;51.380;0.098;2023-05-16T12:18:19;16.30;55.10
63094;DHT22;49183;51.380;0.098;2023-05-16T12:20:48;16.40;55.20
63094;DHT22;49183;51.380;0.098;2023-05-16T12:23:16;16.50;55.00
63094;DHT22;49183;51.380;0.098;2023-05-16T12:25:46;16.40;55.00
63094;DHT22;49183;51.380;0.098;2023-05-16T12:28:16;16.40;54.90
63094;DHT22;49183;51.380;0.098;2023-05-16T12:30:44;16.40;55.50
63094;DHT22;49183;51.380;0.098;2023-05-16T12:33:15;16.40;55.80
63094;DHT22;49183;51.380;0.098;2023-05-16T12:35:44;16.50;56.30
63094;DHT22;49183;51.380;0.098;2023-05-16T12:38:13;16.70;56.10
63094;DHT22;49183;51.380;0.098;2023-05-16T12:40:42;16.70;55.20
63094;DHT22;49183;51.380;0.098;2023-05-16T12:43:18;16.60;55.00
63094;DHT22;49183;51.380;0.098;2023-05-16T12:45:56;16.50;55.20
63094;DHT22;49183;51.380;0.098;2023-05-16T12:48:34;16.30;55.80
63094;DHT22;49183;51.380;0.098;2023-05-16T12:51:15;16.20;56.40
63094;DHT22;49183;51.380;0.098;2023-05-16T12:53:46;16.10;56.90
63094;DHT22;49183;51.380;0.098;2023-05-16T12:56:38;16.20;56.60
63094;DHT22;49183;51.380;0.098;2023-05-16T12:59:07;16.20;56.50
63094;DHT22;49183;51.380;0.098;2023-05-16T13:01:35;16.40;57.00
63094;DHT22;49183;51.380;0.098;2023-05-16T13:04:03;16.50;56.00
63094;DHT22;49183;51.380;0.098;2023-05-16T13:06:32;16.50;56.00
63094;DHT22;49183;51.380;0.098;2023-05-16T13:09:20;16.50;56.20
63094;DHT22;49183;51.380;0.098;2023-05-16T13:11:48;16.60;56.10
63094;DHT22;49183;51.380;0.098;2023-05-16T13:14:17;16.60;55.10
63094;DHT22;49183;51.380;0.098;2023-05-16T13:16:44;16.60;54.80
63094;DHT22;49183;51.380;0.098;2023-05-16T13:19:12;16.60;55.40
63094;DHT22;49183;51.380;0.098;2023-05-16T13:21:40;16.50;55.70
63094;DHT22;49183;51.380;0.098;2023-05-16T13:24:08;16.60;55.70
63094;DHT22;49183;51.380;0.098;2023-05-16T13:26:35;16.80;55.80
63094;DHT22;49183;51.380;0.098;2023-05-16T13:29:03;17.10;54.50
63094;DHT22;49183;51.380;0.098;2023-05-16T13:31:31;17.00;52.80
63094;DHT22;49183;51.380;0.098;2023-05-16T13:33:59;16.90;53.40
63094;DHT22;49183;51.380;0.098;2023-05-16T13:36:27;16.90;53.90
63094;DHT22;49183;51.380;0.098;2023-05-16T13:39:15;16.90;54.20
63094;DHT22;49183;51.380;0.098;2023-05-16T13:41:43;16.80;54.00
63094;DHT22;49183;51.380;0.098;2023-05-16T13:44:13;16.80;53.90
63094;DHT22;49183;51.380;0.098;2023-05-16T13:46:41;16.90;54.50
63094;DHT22;49183;51.380;0.098;2023-05-16T13:49:09;16.90;54.60
63094;DHT22;49183;51.380;0.098;2023-05-16T13:51:37;16.80;54.30
63094;DHT22;49183;51.380;0.098;2023-05-16T13:54:04;16.60;54.60
63094;DHT22;49183;51.380;0.098;2023-05-16T13:56:32;16.60;55.20
63094;DHT22;49183;51.380;0.098;2023-05-16T13:59:00;16.70;55.00
63094;DHT22;49183;51.380;0.098;2023-05-16T14:01:33;16.90;55.00
63094;DHT22;49183;51.380;0.098;2023-05-16T14:04:02;17.20;54.10
63094;DHT22;49183;51.380;0.098;2023-05-16T14:06:30;17.30;53.80
63094;DHT22;49183;51.380;0.098;2023-05-16T14:08:58;17.30;53.90
63094;DHT22;49183;51.380;0.098;2023-05-16T14:11:25;17.20;54.60
63094;DHT22;49183;51.380;0.098;2023-05-16T14:13:56;17.30;54.70
63094;DHT22;49183;51.380;0.098;2023-05-16T14:16:24;17.30;54.80
63094;DHT22;49183;51.380;0.098;2023-05-16T14:18:52;17.40;54.40
63094;DHT22;49183;51.380;0.098;2023-05-16T14:21:20;17.40;53.70
63094;DHT22;49183;51.380;0.098;2023-05-16T14:23:48;17.30;54.00
63094;DHT22;49183;51.380;0.098;2023-05-16T14:26:15;17.20;54.10
63094;DHT22;49183;51.380;0.098;2023-05-16T14:28:44;17.30;53.80
63094;DHT22;49183;51.380;0.098;2023-05-16T14:31:12;17.30;53.70
63094;DHT22;49183;51.380;0.098;2023-05-16T14:33:40;17.20;53.70
63094;DHT22;49183;51.380;0.098;2023-05-16T14:36:07;17.00;55.00
63094;DHT22;49183;51.380;0.098;2023-05-16T14:38:35;17.00;54.90
63094;DHT22;49183;51.380;0.098;2023-05-16T14:41:03;17.30;54.80
63094;DHT22;49183;51.380;0.098;2023-05-16T14:43:30;17.40;53.80
63094;DHT22;49183;51.380;0.098;2023-05-16T14:45:58;17.50;53.30
63094;DHT22;49183;51.380;0.098;2023-05-16T14:48:26;17.50;53.00
63094;DHT22;49183;51.380;0.098;2023-05-16T14:50:54;17.40;53.00
63094;DHT22;49183;51.380;0.098;2023-05-16T14:53:23;17.20;53.30
63094;DHT22;49183;51.380;0.098;2023-05-16T14:55:51;17.20;53.50
63094;DHT22;49183;51.380;0.098;2023-05-16T14:58:19;17.20;53.30
63094;DHT22;49183;51.380;0.098;2023-05-16T15:00:46;17.30;53.90
63094;DHT22;49183;51.380;0.098;2023-05-16T15:03:18;17.50;53.50
63094;DHT22;49183;51.380;0.098;2023-05-16T15:05:46;17.70;52.80
63094;DHT22;49183;51.380;0.098;2023-05-16T15:08:14;17.80;52.60
63094;DHT22;49183;51.380;0.098;2023-05-16T15:10:41;17.70;52.70
63094;DHT22;49183;51.380;0.098;2023-05-16T15:13:09;17.30;52.30
63094;DHT22;49183;51.380;0.098;2023-05-16T15:15:37;17.00;52.90
63094;DHT22;49183;51.380;0.098;2023-05-16T15:18:05;16.90;53.70
63094;DHT22;49183;51.380;0.098;2023-05-16T15:20:32;16.90;53.90
63094;DHT22;49183;51.380;0.098;2023-05-16T15:23:00;16.80;54.30
63094;DHT22;49183;51.380;0.098;2023-05-16T15:25:28;16.50;54.80
63094;DHT22;49183;51.380;0.098;2023-05-16T15:27:56;16.30;55.20
63094;DHT22;49183;51.380;0.098;2023-05-16T15:30:24;16.50;55.60
63094;DHT22;49183;51.380;0.098;2023-05-16T15:32:51;16.60;54.90
63094;DHT22;49183;51.380;0.098;2023-05-16T15:35:19;16.80;54.60
63094;DHT22;49183;51.380;0.098;2023-05-16T15:37:48;17.00;54.40
63094;DHT22;49183;51.380;0.098;2023-05-16T15:40:17;17.10;54.20
63094;DHT22;49183;51.380;0.098;2023-05-16T15:43:23;17.30;54.30
63094;DHT22;49183;51.380;0.098;2023-05-16T15:45:50;17.40;53.50
63094;DHT22;49183;51.380;0.098;2023-05-16T15:48:19;17.40;53.00
63094;DHT22;49183;51.380;0.098;2023-05-16T15:50:46;17.10;52.70
63094;DHT22;49183;51.380;0.098;2023-05-16T15:53:14;16.80;53.60
63094;DHT22;49183;51.380;0.098;2023-05-16T15:55:42;16.70;54.20
63094;DHT22;49183;51.380;0.098;2023-05-16T15:58:10;16.80;54.20
63094;DHT22;49183;51.380;0.098;2023-05-16T16:00:37;16.80;53.90
63094;DHT22;49183;51.380;0.098;2023-05-16T16:03:07;16.50;54.30
63094;DHT22;49183;51.380;0.098;2023-05-16T16:05:36;16.30;55.00
63094;DHT22;49183;51.380;0.098;2023-05-16T16:08:04;16.30;55.10
63094;DHT22;49183;51.380;0.098;2023-05-16T16:10:31;16.20;54.90
63094;DHT22;49183;51.380;0.098;2023-05-16T16:13:03;16.10;55.10
63094;DHT22;49183;51.380;0.098;2023-05-16T16:15:31;15.90;56.00
63094;DHT22;49183;51.380;0.098;2023-05-16T16:18:00;15.90;56.50
63094;DHT22;49183;51.380;0.098;2023-05-16T16:20:28;15.90;56.80
63094;DHT22;49183;51.380;0.098;2023-05-16T16:22:56;15.80;56.80
63094;DHT22;49183;51.380;0.098;2023-05-16T16:25:24;15.90;57.10
63094;DHT22;49183;51.380;0.098;2023-05-16T16:27:52;16.20;57.30
63094;DHT22;49183;51.380;0.098;2023-05-16T16:30:19;16.50;56.50
63094;DHT22;49183;51.380;0.098;2023-05-16T16:32:47;16.60;55.50
63094;DHT22;49183;51.380;0.098;2023-05-16T16:35:15;16.50;55.10
63094;DHT22;49183;51.380;0.098;2023-05-16T16:37:43;16.40;55.20
63094;DHT22;49183;51.380;0.098;2023-05-16T16:40:31;16.30;55.50
63094;DHT22;49183;51.380;0.098;2023-05-16T16:42:59;16.10;56.80
63094;DHT22;49183;51.380;0.098;2023-05-16T16:45:27;16.00;56.70
63094;DHT22;49183;51.380;0.098;2023-05-16T16:47:55;16.20;56.00
63094;DHT22;49183;51.380;0.098;2023-05-16T16:50:24;16.40;56.10
63094;DHT22;49183;51.380;0.098;2023-05-16T16:52:52;16.80;55.80
63094;DHT22;49183;51.380;0.098;2023-05-16T16:55:25;17.10;54.70
63094;DHT22;49183;51.380;0.098;2023-05-16T16:57:53;17.30;53.80
63094;DHT22;49183;51.380;0.098;2023-05-16T17:00:21;17.20;53.30
63094;DHT22;49183;51.380;0.098;2023-05-16T17:02:48;16.80;53.60
63094;DHT22;49183;51.380;0.098;2023-05-16T17:05:16;16.60;54.40
63094;DHT22;49183;51.380;0.098;2023-05-16T17:07:44;16.70;54.90
63094;DHT22;49183;51.380;0.098;2023-05-16T17:10:12;16.90;54.90
63094;DHT22;49183;51.380;0.098;2023-05-16T17:12:40;16.90;54.60
63094;DHT22;49183;51.380;0.098;2023-05-16T17:15:13;16.70;55.00
63094;DHT22;49183;51.380;0.098;2023-05-16T17:17:41;16.40;55.40
63094;DHT22;49183;51.380;0.098;2023-05-16T17:20:09;16.20;55.80
63094;DHT22;49183;51.380;0.098;2023-05-16T17:22:39;15.90;56.30
63094;DHT22;49183;51.380;0.098;2023-05-16T17:25:07;15.60;56.80
63094;DHT22;49183;51.380;0.098;2023-05-16T17:27:35;15.30;57.50
63094;DHT22;49183;51.380;0.098;2023-05-16T17:30:02;15.10;58.10
63094;DHT22;49183;51.380;0.098;2023-05-16T17:32:33;15.00;58.50
63094;DHT22;49183;51.380;0.098;2023-05-16T17:35:01;14.90;58.70
63094;DHT22;49183;51.380;0.098;2023-05-16T17:37:32;14.80;59.00
63094;DHT22;49183;51.380;0.098;2023-05-16T17:40:00;14.80;59.10
63094;DHT22;49183;51.380;0.098;2023-05-16T17:42:27;14.90;59.00
63094;DHT22;49183;51.380;0.098;2023-05-16T17:44:55;15.20;58.80
63094;DHT22;49183;51.380;0.098;2023-05-16T17:47:23;15.70;58.30
63094;DHT22;49183;51.380;0.098;2023-05-16T17:49:50;16.20;57.60
63094;DHT22;49183;51.380;0.098;2023-05-16T17:52:18;16.80;56.80
63094;DHT22;49183;51.380;0.098;2023-05-16T17:54:48;17.40;55.70
63094;DHT22;49183;51.380;0.098;2023-05-16T17:57:15;17.80;54.70
63094;DHT22;49183;51.380;0.098;2023-05-16T17:59:43;18.20;53.70
63094;DHT22;49183;51.380;0.098;2023-05-16T18:02:11;18.30;52.90
63094;DHT22;49183;51.380;0.098;2023-05-16T18:04:41;18.30;52.20
63094;DHT22;49183;51.380;0.098;2023-05-16T18:07:09;18.10;52.00
63094;DHT22;49183;51.380;0.098;2023-05-16T18:09:37;17.60;52.30
63094;DHT22;49183;51.380;0.098;2023-05-16T18:12:05;17.10;53.30
63094;DHT22;49183;51.380;0.098;2023-05-16T18:14:33;16.70;54.20
63094;DHT22;49183;51.380;0.098;2023-05-16T18:17:01;16.40;55.00
63094;DHT22;49183;51.380;0.098;2023-05-16T18:19:28;16.40;55.50
63094;DHT22;49183;51.380;0.098;2023-05-16T18:21:58;16.50;55.80
63094;DHT22;49183;51.380;0.098;2023-05-16T18:24:26;16.60;55.80
63094;DHT22;49183;51.380;0.098;2023-05-16T18:26:54;16.70;55.90
63094;DHT22;49183;51.380;0.098;2023-05-16T18:29:22;16.90;55.30
63094;DHT22;49183;51.380;0.098;2023-05-16T18:31:50;16.80;54.40
63094;DHT22;49183;51.380;0.098;2023-05-16T18:34:17;16.50;53.80
63094;DHT22;49183;51.380;0.098;2023-05-16T18:36:45;16.00;54.40
63094;DHT22;49183;51.380;0.098;2023-05-16T18:39:14;15.50;55.40
63094;DHT22;49183;51.380;0.098;2023-05-16T18:41:44;15.10;56.30
63094;DHT22;49183;51.380;0.098;2023-05-16T18:44:14;14.70;57.20
63094;DHT22;49183;51.380;0.098;2023-05-16T18:46:46;14.50;57.90
63094;DHT22;49183;51.380;0.098;2023-05-16T18:49:14;14.40;58.60
63094;DHT22;49183;51.380;0.098;2023-05-16T18:51:44;14.30;59.00
63094;DHT22;49183;51.380;0.098;2023-05-16T18:54:12;14.00;59.70
63094;DHT22;49183;51.380;0.098;2023-05-16T19:33:20;12.80;64.60
63094;DHT22;49183;51.380;0.098;2023-05-16T19:53:34;11.80;68.20
63094;DHT22;49183;51.380;0.098;2023-05-16T19:56:06;11.60;69.10
63094;DHT22;49183;51.380;0.098;2023-05-16T19:58:36;11.50;69.50
